Beja International Airport Beja PT
ICAO: LPBJ
IATA: BYJ
Category: Medium
Scheduled Services: No

Elevation: 636 ft
TransAlt. 3500 ft.

Airport Communications:
APP:130.1
GND:23.4
TWR:130.4

LPBJ Zoom In..

If you have problems with the map follow the link
https://www.worldairports.se/pages/airport.php?
ICAO=LPBJ

Runways:

(A) RW 01L length 11319 ft width 197 ft
---- / hdg 9

(B) RW 01R length 11319 ft width 98 ft
---- / hdg 9

(C) RW 19L length 11319 ft width 98 ft
---- / hdg 189

(D) RW 19R length 11319 ft width 197 ft
ILS 110.30 / hdg 189

Location; LPBJ
Day. 21 / Time. 08.00 Zulu
* QNH: 1017
* Temperature: 15° c. 59°f.
* Wind from: 090° Speed 06 kn.
Dewpoint: 14° c.
Visibility: 10 km or more.
Clouds: Few 2000 ft.
Clouds: Few 2500 ft.
Clouds: Scattered 3500 ft.

LPBJ 210800Z 09006KT 9999 FEW020 FEW025TCU SCT035 15/14 Q1017


Wind From 090°
Speed 06 kn.

 
 
jpsmedia.com for Web Design worldairports.se 2018   terms of use